Time,TemperatureF,DewpointF,PressureIn,WindDirection,WindDirectionDegrees,WindSpeedMPH,WindSpeedGustMPH,Humidity,HourlyPrecipIn,Conditions,Clouds,dailyrainin,SoftwareType,DateUTC
2013-02-05 00:00:00,32.3,32.3,29.92,NNE,31,0.0,0.0,100,0.00,,,0.12,VWS V13.01,2013-02-05 06:00:00,
2013-02-05 00:05:00,32.3,32.3,29.92,NNE,31,0.0,0.0,100,0.00,,,0.00,VWS V13.01,2013-02-05 06:05:00,
2013-02-05 00:10:00,32.2,32.2,29.92,NNE,31,0.0,0.0,100,0.00,,,0.00,VWS V13.01,2013-02-05 06:10:00,
2013-02-05 00:15:00,32.2,32.2,29.92,NNE,31,0.0,0.0,100,0.00,,,0.00,VWS V13.01,2013-02-05 06:15:00,
2013-02-05 00:20:00,32.2,32.2,29.92,NNE,31,0.0,0.0,100,0.00,,,0.00,VWS V13.01,2013-02-05 06:20:00,
2013-02-05 00:25:00,32.2,32.2,29.92,NNE,31,0.0,0.0,100,0.00,,,0.00,VWS V13.01,2013-02-05 06:25:00,
2013-02-05 00:30:00,32.0,32.0,29.92,NNE,31,0.0,0.0,100,0.00,,,0.00,VWS V13.01,2013-02-05 06:30:00,
2013-02-05 00:35:00,32.0,32.0,29.92,NNE,31,0.0,0.0,100,0.00,,,0.00,VWS V13.01,2013-02-05 06:35:00,
2013-02-05 00:40:00,31.6,31.6,29.92,NNE,31,0.0,0.0,100,0.00,,,0.00,VWS V13.01,2013-02-05 06:40:00,
2013-02-05 00:45:00,31.4,31.4,29.92,NNE,31,0.0,0.0,100,0.00,,,0.00,VWS V13.01,2013-02-05 06:45:00,
2013-02-05 00:50:00,31.4,31.4,29.92,NNE,31,0.0,0.0,100,0.00,,,0.00,VWS V13.01,2013-02-05 06:50:00,
2013-02-05 00:55:00,31.3,31.3,29.92,NNE,31,0.0,0.0,100,0.00,,,0.00,VWS V13.01,2013-02-05 06:55:00,
2013-02-05 01:00:00,31.3,31.3,29.92,NNE,31,0.0,0.0,100,0.00,,,0.00,VWS V13.01,2013-02-05 07:00:00,
2013-02-05 01:05:00,31.1,31.1,29.92,NNE,31,0.0,0.0,100,0.00,,,0.00,VWS V13.01,2013-02-05 07:05:00,
2013-02-05 01:10:00,31.1,31.1,29.92,NNE,31,0.0,0.0,100,0.00,,,0.00,VWS V13.01,2013-02-05 07:10:00,
2013-02-05 01:15:00,30.9,30.9,29.92,NNE,31,0.0,0.0,100,0.00,,,0.00,VWS V13.01,2013-02-05 07:15:00,
2013-02-05 01:20:00,30.9,30.9,29.92,NNE,31,0.0,0.0,100,0.00,,,0.00,VWS V13.01,2013-02-05 07:20:00,
2013-02-05 01:25:00,30.7,30.7,29.92,NNE,31,0.0,0.0,100,0.00,,,0.00,VWS V13.01,2013-02-05 07:25:00,
2013-02-05 01:30:00,30.7,30.7,29.92,NNE,31,0.0,0.0,100,0.00,,,0.00,VWS V13.01,2013-02-05 07:30:00,
2013-02-05 01:35:00,30.7,30.7,29.92,NNE,31,0.0,0.0,100,0.00,,,0.00,VWS V13.01,2013-02-05 07:35:00,
2013-02-05 01:40:00,30.7,30.7,29.92,NNE,31,0.0,0.0,100,0.00,,,0.00,VWS V13.01,2013-02-05 07:40:00,
2013-02-05 01:45:00,30.7,30.7,29.92,NNE,31,0.0,0.0,100,0.00,,,0.00,VWS V13.01,2013-02-05 07:45:00,
2013-02-05 01:50:00,30.7,30.7,29.92,NNE,31,0.0,0.0,100,0.00,,,0.00,VWS V13.01,2013-02-05 07:50:00,
2013-02-05 01:55:00,30.9,30.9,29.92,NNE,31,0.0,0.0,100,0.00,,,0.00,VWS V13.01,2013-02-05 07:55:00,
2013-02-05 02:00:00,31.1,31.1,29.92,NNE,31,0.0,0.0,100,0.00,,,0.00,VWS V13.01,2013-02-05 08:00:00,
2013-02-05 02:05:00,31.1,31.1,29.92,NNE,31,0.0,0.0,100,0.00,,,0.00,VWS V13.01,2013-02-05 08:05:00,
2013-02-05 02:10:00,31.1,31.1,29.92,NNE,31,0.0,0.0,100,0.00,,,0.00,VWS V13.01,2013-02-05 08:10:00,
2013-02-05 02:15:00,31.1,31.1,29.92,NNE,31,0.0,0.0,100,0.00,,,0.00,VWS V13.01,2013-02-05 08:15:00,
2013-02-05 02:20:00,31.1,31.1,29.92,NNE,31,0.0,0.0,100,0.00,,,0.00,VWS V13.01,2013-02-05 08:20:00,
2013-02-05 02:25:00,30.9,30.9,29.92,NNE,31,0.0,0.0,100,0.00,,,0.00,VWS V13.01,2013-02-05 08:25:00,
2013-02-05 02:30:00,30.9,30.9,29.92,NNE,31,0.0,0.0,100,0.00,,,0.00,VWS V13.01,2013-02-05 08:30:00,
2013-02-05 02:35:00,30.7,30.7,29.92,ENE,69,0.0,0.0,100,0.00,,,0.00,VWS V13.01,2013-02-05 08:35:00,
2013-02-05 02:40:00,30.7,30.7,29.92,ENE,70,0.0,0.0,100,0.00,,,0.00,VWS V13.01,2013-02-05 08:40:00,
2013-02-05 02:45:00,30.7,30.7,29.92,ENE,70,0.0,0.0,100,0.00,,,0.00,VWS V13.01,2013-02-05 08:45:00,
2013-02-05 02:50:00,30.7,30.7,29.92,ENE,70,0.0,0.0,100,0.00,,,0.00,VWS V13.01,2013-02-05 08:50:00,
2013-02-05 02:55:00,30.9,30.9,29.92,ENE,70,0.0,0.0,100,0.00,,,0.00,VWS V13.01,2013-02-05 08:55:00,
2013-02-05 03:00:00,31.1,31.1,29.92,ENE,70,0.0,0.0,100,0.00,,,0.00,VWS V13.01,2013-02-05 09:00:00,
2013-02-05 03:05:00,31.1,31.1,29.92,ENE,70,0.0,0.0,100,0.00,,,0.00,VWS V13.01,2013-02-05 09:05:00,
2013-02-05 03:10:00,31.1,31.1,29.92,ENE,70,0.0,0.0,100,0.00,,,0.00,VWS V13.01,2013-02-05 09:10:00,
2013-02-05 03:15:00,31.1,31.1,29.92,ENE,70,0.0,0.0,100,0.00,,,0.00,VWS V13.01,2013-02-05 09:15:00,
2013-02-05 03:20:00,31.3,31.3,29.92,ENE,70,0.0,0.0,100,0.00,,,0.00,VWS V13.01,2013-02-05 09:20:00,
2013-02-05 03:25:00,31.3,31.3,29.92,ENE,70,0.0,0.0,100,0.00,,,0.00,VWS V13.01,2013-02-05 09:25:00,
2013-02-05 03:30:00,31.3,31.3,29.92,ENE,70,0.0,0.0,100,0.00,,,0.00,VWS V13.01,2013-02-05 09:30:00,
2013-02-05 03:35:00,31.3,31.3,29.92,ENE,70,0.0,0.0,100,0.00,,,0.00,VWS V13.01,2013-02-05 09:35:00,
2013-02-05 03:40:00,31.4,31.4,29.92,ENE,70,0.0,0.0,100,0.00,,,0.00,VWS V13.01,2013-02-05 09:40:00,
2013-02-05 03:45:00,31.4,31.4,29.92,ENE,70,0.0,0.0,100,0.00,,,0.00,VWS V13.01,2013-02-05 09:45:00,
2013-02-05 03:49:00,31.3,31.3,29.92,ENE,70,0.0,0.0,100,0.00,,,0.00,VWS V13.01,2013-02-05 09:49:00,
2013-02-05 03:54:00,31.3,31.3,29.92,ENE,70,0.0,0.0,100,0.00,,,0.00,VWS V13.01,2013-02-05 09:54:00,
2013-02-05 03:59:00,31.4,31.4,29.92,ENE,70,0.0,0.0,100,0.00,,,0.00,VWS V13.01,2013-02-05 09:59:00,
2013-02-05 04:04:00,31.6,31.6,29.92,ENE,70,0.0,0.0,100,0.00,,,0.00,VWS V13.01,2013-02-05 10:04:00,
2013-02-05 04:09:00,31.6,31.6,29.92,ENE,70,0.0,0.0,100,0.00,,,0.00,VWS V13.01,2013-02-05 10:09:00,
2013-02-05 04:14:00,31.4,31.4,29.92,ENE,70,0.0,0.0,100,0.00,,,0.00,VWS V13.01,2013-02-05 10:14:00,
2013-02-05 04:19:00,31.6,31.6,29.92,ENE,70,0.0,0.0,100,0.00,,,0.00,VWS V13.01,2013-02-05 10:19:00,
2013-02-05 04:24:00,31.6,31.6,29.92,ENE,70,0.0,0.0,100,0.00,,,0.00,VWS V13.01,2013-02-05 10:24:00,
2013-02-05 04:29:00,31.8,31.8,29.92,ENE,70,0.0,0.0,100,0.00,,,0.00,VWS V13.01,2013-02-05 10:29:00,
2013-02-05 04:34:00,31.8,31.8,29.92,ENE,70,0.0,0.0,100,0.00,,,0.00,VWS V13.01,2013-02-05 10:34:00,
2013-02-05 04:39:00,32.0,32.0,29.92,NNE,16,0.0,0.0,100,0.00,,,0.00,VWS V13.01,2013-02-05 10:39:00,
2013-02-05 04:44:00,32.0,32.0,29.92,NNW,333,0.0,0.0,100,0.00,,,0.00,VWS V13.01,2013-02-05 10:44:00,
2013-02-05 04:49:00,32.0,32.0,29.92,North,358,0.0,0.0,100,0.00,,,0.00,VWS V13.01,2013-02-05 10:49:00,
2013-02-05 04:54:00,32.0,32.0,29.92,NNW,345,0.0,0.0,100,0.00,,,0.00,VWS V13.01,2013-02-05 10:54:00,
2013-02-05 04:59:00,32.0,32.0,29.92,NNW,345,0.0,0.0,100,0.00,,,0.00,VWS V13.01,2013-02-05 10:59:00,
2013-02-05 05:04:00,31.8,31.8,29.92,NNW,345,0.0,0.0,100,0.00,,,0.00,VWS V13.01,2013-02-05 11:04:00,
2013-02-05 05:09:00,31.8,31.8,29.92,NNW,345,0.0,0.0,100,0.00,,,0.00,VWS V13.01,2013-02-05 11:09:00,
2013-02-05 05:14:00,31.6,31.6,29.92,NNW,345,0.0,0.0,100,0.00,,,0.00,VWS V13.01,2013-02-05 11:14:00,
2013-02-05 05:19:00,31.6,31.6,29.92,NNW,345,0.0,0.0,100,0.00,,,0.00,VWS V13.01,2013-02-05 11:19:00,
2013-02-05 05:24:00,31.4,31.4,29.92,NNW,345,0.0,0.0,100,0.00,,,0.00,VWS V13.01,2013-02-05 11:24:00,
2013-02-05 05:29:00,31.1,31.1,29.92,NNW,345,0.0,0.0,100,0.00,,,0.00,VWS V13.01,2013-02-05 11:29:00,
2013-02-05 05:34:00,30.9,30.9,29.92,NNW,345,0.0,0.0,100,0.00,,,0.00,VWS V13.01,2013-02-05 11:34:00,
2013-02-05 05:39:00,30.7,30.7,29.92,NNW,345,0.0,0.0,100,0.00,,,0.00,VWS V13.01,2013-02-05 11:39:00,
2013-02-05 05:44:00,30.5,30.5,29.95,NNW,345,0.0,0.0,100,0.00,,,0.00,VWS V13.01,2013-02-05 11:44:00,
2013-02-05 05:49:00,30.5,30.5,29.95,NNW,345,0.0,0.0,100,0.00,,,0.00,VWS V13.01,2013-02-05 11:49:00,
2013-02-05 05:54:00,30.5,30.5,29.95,NNW,347,0.0,0.0,100,0.00,,,0.00,VWS V13.01,2013-02-05 11:54:00,
2013-02-05 05:59:00,30.4,30.4,29.95,ESE,106,0.0,0.0,100,0.00,,,0.00,VWS V13.01,2013-02-05 11:59:00,
2013-02-05 06:04:00,30.2,30.2,29.95,ESE,121,0.0,0.0,100,0.00,,,0.00,VWS V13.01,2013-02-05 12:04:00,
2013-02-05 06:09:00,30.2,30.2,29.95,ESE,121,0.0,0.0,100,0.00,,,0.00,VWS V13.01,2013-02-05 12:09:00,
2013-02-05 06:14:00,30.0,30.0,29.95,ESE,121,0.0,0.0,100,0.00,,,0.00,VWS V13.01,2013-02-05 12:14:00,
2013-02-05 06:19:00,30.2,30.2,29.95,ESE,121,0.0,0.0,100,0.00,,,0.00,VWS V13.01,2013-02-05 12:19:00,
2013-02-05 06:24:00,30.2,30.2,29.95,ESE,121,0.0,0.0,100,0.00,,,0.00,VWS V13.01,2013-02-05 12:24:00,
2013-02-05 06:29:00,30.0,30.0,29.95,ESE,121,0.0,0.0,100,0.00,,,0.00,VWS V13.01,2013-02-05 12:29:00,
2013-02-05 06:34:00,30.0,30.0,29.95,ESE,121,0.0,0.0,100,0.00,,,0.00,VWS V13.01,2013-02-05 12:34:00,
2013-02-05 06:39:00,29.8,29.8,29.95,ESE,121,0.0,0.0,100,0.00,,,0.00,VWS V13.01,2013-02-05 12:39:00,
2013-02-05 06:44:00,29.8,29.8,29.95,ESE,121,0.0,0.0,100,0.00,,,0.00,VWS V13.01,2013-02-05 12:44:00,
2013-02-05 06:49:00,30.0,30.0,29.95,ESE,121,0.0,0.0,100,0.00,,,0.00,VWS V13.01,2013-02-05 12:49:00,
2013-02-05 06:54:00,30.0,30.0,29.95,ESE,121,0.0,0.0,100,0.00,,,0.00,VWS V13.01,2013-02-05 12:54:00,
2013-02-05 06:59:00,30.2,30.2,29.95,ESE,121,0.0,0.0,100,0.00,,,0.00,VWS V13.01,2013-02-05 12:59:00,
2013-02-05 07:04:00,30.2,30.2,29.95,ESE,121,0.0,0.0,100,0.00,,,0.00,VWS V13.01,2013-02-05 13:04:00,
2013-02-05 07:09:00,30.2,30.2,29.95,ESE,121,0.0,0.0,100,0.00,,,0.00,VWS V13.01,2013-02-05 13:09:00,
2013-02-05 07:14:00,30.2,30.2,29.98,ESE,121,0.0,0.0,100,0.00,,,0.00,VWS V13.01,2013-02-05 13:14:00,
2013-02-05 07:19:00,30.2,30.2,29.98,ESE,121,0.0,0.0,100,0.00,,,0.00,VWS V13.01,2013-02-05 13:19:00,
2013-02-05 07:24:00,30.2,30.2,29.98,ESE,121,0.0,0.0,100,0.00,,,0.00,VWS V13.01,2013-02-05 13:24:00,
2013-02-05 07:29:00,30.2,30.2,29.98,ESE,121,0.0,0.0,100,0.00,,,0.00,VWS V13.01,2013-02-05 13:29:00,
2013-02-05 07:34:00,30.4,30.4,29.98,ESE,121,0.0,0.0,100,0.00,,,0.00,VWS V13.01,2013-02-05 13:34:00,
2013-02-05 07:39:00,30.5,30.5,29.98,ESE,121,0.0,0.0,100,0.00,,,0.00,VWS V13.01,2013-02-05 13:39:00,
2013-02-05 07:44:00,30.7,30.7,29.98,SE,135,0.0,0.0,100,0.00,,,0.00,VWS V13.01,2013-02-05 13:44:00,
2013-02-05 07:49:00,30.7,30.7,29.98,SE,135,0.0,0.0,100,0.00,,,0.00,VWS V13.01,2013-02-05 13:49:00,
2013-02-05 07:54:00,30.9,30.9,29.98,SE,135,0.0,0.0,100,0.00,,,0.00,VWS V13.01,2013-02-05 13:54:00,
2013-02-05 07:59:00,31.1,31.1,29.98,SE,135,0.0,0.0,100,0.00,,,0.00,VWS V13.01,2013-02-05 13:59:00,
2013-02-05 08:04:00,31.1,31.1,29.98,SW,214,0.0,0.0,100,0.00,,,0.00,VWS V13.01,2013-02-05 14:04:00,
2013-02-05 08:09:00,31.3,31.3,29.98,South,176,0.0,0.0,100,0.00,,,0.00,VWS V13.01,2013-02-05 14:09:00,
2013-02-05 08:14:00,31.3,31.3,29.98,South,185,0.0,0.0,100,0.00,,,0.00,VWS V13.01,2013-02-05 14:14:00,
2013-02-05 08:19:00,31.4,31.4,29.98,SSW,201,0.0,0.0,100,0.00,,,0.00,VWS V13.01,2013-02-05 14:19:00,
2013-02-05 08:24:00,31.6,31.6,29.98,SSW,201,0.0,0.0,100,0.00,,,0.00,VWS V13.01,2013-02-05 14:24:00,
2013-02-05 08:29:00,31.8,31.8,30.01,SSW,201,0.0,0.0,100,0.00,,,0.00,VWS V13.01,2013-02-05 14:29:00,
2013-02-05 08:34:00,31.8,31.8,30.01,SSW,193,0.0,0.0,100,0.00,,,0.00,VWS V13.01,2013-02-05 14:34:00,
2013-02-05 08:39:00,32.0,32.0,30.01,South,184,0.0,0.0,100,0.00,,,0.00,VWS V13.01,2013-02-05 14:39:00,
2013-02-05 08:44:00,32.3,32.3,30.01,South,184,0.0,0.0,100,0.00,,,0.00,VWS V13.01,2013-02-05 14:44:00,
2013-02-05 08:49:00,32.3,32.3,30.01,East,90,0.0,0.0,100,0.00,,,0.00,VWS V13.01,2013-02-05 14:49:00,
2013-02-05 08:54:00,32.5,32.5,30.01,East,90,0.0,0.0,100,0.00,,,0.00,VWS V13.01,2013-02-05 14:54:00,
2013-02-05 08:59:00,32.5,32.5,30.01,East,90,0.0,0.0,100,0.00,,,0.00,VWS V13.01,2013-02-05 14:59:00,
2013-02-05 09:04:00,32.9,32.9,30.01,NNE,29,0.0,0.0,100,0.00,,,0.00,VWS V13.01,2013-02-05 15:04:00,
2013-02-05 09:09:00,33.1,33.1,30.01,NNE,22,2.2,2.2,100,0.00,,,0.00,VWS V13.01,2013-02-05 15:09:00,
2013-02-05 09:14:00,33.1,33.1,30.01,NNE,28,0.0,0.0,100,0.00,,,0.00,VWS V13.01,2013-02-05 15:14:00,
2013-02-05 09:19:00,33.2,33.2,30.01,NNE,28,0.0,0.0,100,0.00,,,0.00,VWS V13.01,2013-02-05 15:19:00,
2013-02-05 09:24:00,33.4,33.4,30.01,SE,133,0.0,0.0,100,0.00,,,0.00,VWS V13.01,2013-02-05 15:24:00,
2013-02-05 09:29:00,33.8,33.8,30.01,SE,140,0.0,0.0,100,0.00,,,0.00,VWS V13.01,2013-02-05 15:29:00,
2013-02-05 09:34:00,33.6,33.6,30.01,SW,234,2.7,2.7,100,0.00,,,0.00,VWS V13.01,2013-02-05 15:34:00,
2013-02-05 09:39:00,34.0,34.0,30.01,WSW,253,2.7,2.7,100,0.00,,,0.00,VWS V13.01,2013-02-05 15:39:00,
2013-02-05 09:44:00,34.0,34.0,30.01,WSW,254,0.0,0.0,100,0.00,,,0.00,VWS V13.01,2013-02-05 15:44:00,
2013-02-05 09:49:00,34.3,34.3,30.01,WSW,252,2.2,2.2,100,0.00,,,0.00,VWS V13.01,2013-02-05 15:49:00,
2013-02-05 09:54:00,34.5,34.5,30.01,SSW,209,0.0,0.0,100,0.00,,,0.00,VWS V13.01,2013-02-05 15:54:00,
2013-02-05 09:59:00,34.9,34.9,30.01,WSW,241,2.7,2.7,100,0.00,,,0.00,VWS V13.01,2013-02-05 15:59:00,
2013-02-05 10:04:00,35.0,35.0,30.01,SW,228,2.2,3.1,100,0.00,,,0.00,VWS V13.01,2013-02-05 16:04:00,
2013-02-05 10:09:00,35.2,35.2,30.01,SW,236,0.0,0.0,100,0.00,,,0.00,VWS V13.01,2013-02-05 16:09:00,
2013-02-05 10:14:00,35.4,35.4,30.01,WSW,243,0.0,0.0,100,0.00,,,0.00,VWS V13.01,2013-02-05 16:14:00,
2013-02-05 10:19:00,35.8,35.8,30.01,SSW,202,0.0,0.0,100,0.00,,,0.00,VWS V13.01,2013-02-05 16:19:00,
2013-02-05 10:23:00,36.1,36.1,30.01,South,186,0.0,0.0,100,0.00,,,0.00,VWS V13.01,2013-02-05 16:23:00,
2013-02-05 10:28:00,36.3,36.3,30.04,South,186,0.0,0.0,100,0.00,,,0.00,VWS V13.01,2013-02-05 16:28:00,
2013-02-05 10:33:00,36.8,36.8,30.04,WSW,254,0.0,0.0,100,0.00,,,0.00,VWS V13.01,2013-02-05 16:33:00,
2013-02-05 10:38:00,37.2,37.2,30.04,SW,232,3.1,3.1,100,0.00,,,0.00,VWS V13.01,2013-02-05 16:38:00,
2013-02-05 10:43:00,37.2,37.2,30.04,SSE,164,2.7,3.6,100,0.00,,,0.00,VWS V13.01,2013-02-05 16:43:00,
2013-02-05 10:48:00,37.4,37.4,30.04,South,175,4.0,4.0,100,0.00,,,0.00,VWS V13.01,2013-02-05 16:48:00,
2013-02-05 10:53:00,38.1,38.1,30.04,SE,143,2.7,2.7,100,0.00,,,0.00,VWS V13.01,2013-02-05 16:53:00,
2013-02-05 10:58:00,38.6,38.6,30.04,SW,227,2.7,2.7,100,0.00,,,0.00,VWS V13.01,2013-02-05 16:58:00,
2013-02-05 11:03:00,38.8,38.8,30.04,SSW,206,3.1,3.1,100,0.00,,,0.00,VWS V13.01,2013-02-05 17:03:00,
2013-02-05 11:08:00,39.2,39.2,30.04,SE,139,0.0,0.0,100,0.00,,,0.00,VWS V13.01,2013-02-05 17:08:00,
2013-02-05 11:13:00,39.7,39.7,30.04,WSW,239,2.2,3.1,100,0.00,,,0.00,VWS V13.01,2013-02-05 17:13:00,
2013-02-05 11:18:00,40.4,40.4,30.04,West,260,2.7,2.7,100,0.00,,,0.00,VWS V13.01,2013-02-05 17:18:00,
2013-02-05 11:23:00,41.0,41.0,30.04,SSW,195,4.0,4.0,100,0.00,,,0.00,VWS V13.01,2013-02-05 17:23:00,
2013-02-05 11:28:00,41.9,41.9,30.01,SE,136,0.0,3.6,100,0.00,,,0.00,VWS V13.01,2013-02-05 17:28:00,
2013-02-05 11:33:00,42.4,42.4,30.01,WSW,242,2.7,3.1,100,0.00,,,0.00,VWS V13.01,2013-02-05 17:33:00,
2013-02-05 11:38:00,42.6,42.6,30.01,WSW,250,2.7,2.7,100,0.00,,,0.00,VWS V13.01,2013-02-05 17:38:00,
2013-02-05 11:43:00,43.3,43.3,30.01,South,175,3.1,3.1,100,0.00,,,0.00,VWS V13.01,2013-02-05 17:43:00,
2013-02-05 11:48:00,44.4,44.4,30.01,WSW,246,2.7,3.1,100,0.00,,,0.00,VWS V13.01,2013-02-05 17:48:00,
2013-02-05 11:53:00,44.8,44.8,30.01,West,264,3.1,3.6,100,0.00,,,0.00,VWS V13.01,2013-02-05 17:53:00,
2013-02-05 11:58:00,45.3,45.3,30.01,SSW,193,3.6,4.0,100,0.00,,,0.00,VWS V13.01,2013-02-05 17:58:00,
2013-02-05 12:03:00,46.2,46.2,30.01,South,189,4.0,4.0,100,0.00,,,0.00,VWS V13.01,2013-02-05 18:03:00,
2013-02-05 12:08:00,46.9,46.9,30.01,WSW,249,3.1,4.9,100,0.00,,,0.00,VWS V13.01,2013-02-05 18:08:00,
2013-02-05 12:13:00,47.6,47.6,30.01,SSW,196,2.7,2.7,100,0.00,,,0.00,VWS V13.01,2013-02-05 18:13:00,
2013-02-05 12:18:00,48.5,48.5,30.01,SW,235,3.6,3.6,100,0.00,,,0.00,VWS V13.01,2013-02-05 18:18:00,
2013-02-05 12:23:00,48.9,48.9,30.01,South,174,3.1,4.0,100,0.00,,,0.00,VWS V13.01,2013-02-05 18:23:00,
2013-02-05 12:28:00,49.8,49.8,30.01,WSW,243,2.2,3.6,100,0.00,,,0.00,VWS V13.01,2013-02-05 18:28:00,
2013-02-05 12:33:00,50.2,50.2,30.01,SSE,159,4.5,4.5,100,0.00,,,0.00,VWS V13.01,2013-02-05 18:33:00,
2013-02-05 12:38:00,50.2,47.9,30.01,South,181,2.7,2.7,92,0.00,,,0.00,VWS V13.01,2013-02-05 18:38:00,
2013-02-05 12:43:00,50.9,46.8,30.01,SSW,206,2.7,2.7,86,0.00,,,0.00,VWS V13.01,2013-02-05 18:43:00,
2013-02-05 12:48:00,51.6,44.6,30.01,SSE,147,2.7,5.4,77,0.00,,,0.00,VWS V13.01,2013-02-05 18:48:00,
2013-02-05 12:53:00,52.3,45.0,30.01,SSE,160,5.4,5.4,76,0.00,,,0.00,VWS V13.01,2013-02-05 18:53:00,
2013-02-05 12:58:00,52.9,45.9,30.01,South,181,5.8,5.8,77,0.00,,,0.00,VWS V13.01,2013-02-05 18:58:00,
2013-02-05 13:03:00,53.4,45.3,29.98,SSW,196,5.4,5.4,74,0.00,,,0.00,VWS V13.01,2013-02-05 19:03:00,
2013-02-05 13:08:00,53.9,46.6,29.98,SSW,207,4.0,4.0,76,0.00,,,0.00,VWS V13.01,2013-02-05 19:08:00,
2013-02-05 13:13:00,54.1,46.0,29.98,South,187,5.8,7.6,74,0.00,,,0.00,VWS V13.01,2013-02-05 19:13:00,
2013-02-05 13:18:00,54.3,46.6,29.98,South,177,8.1,8.1,75,0.00,,,0.00,VWS V13.01,2013-02-05 19:18:00,
2013-02-05 13:23:00,54.7,47.3,29.98,SW,229,5.8,5.8,76,0.00,,,0.00,VWS V13.01,2013-02-05 19:23:00,
2013-02-05 13:28:00,55.0,47.2,29.98,SW,219,4.0,4.0,75,0.00,,,0.00,VWS V13.01,2013-02-05 19:28:00,
2013-02-05 13:33:00,55.2,47.1,29.98,SSE,156,3.1,5.4,74,0.00,,,0.00,VWS V13.01,2013-02-05 19:33:00,
2013-02-05 13:38:00,55.6,47.1,29.98,South,173,5.8,5.8,73,0.00,,,0.00,VWS V13.01,2013-02-05 19:38:00,
2013-02-05 13:43:00,55.6,47.1,29.98,SW,232,4.0,4.0,73,0.00,,,0.00,VWS V13.01,2013-02-05 19:43:00,
2013-02-05 13:48:00,56.1,47.6,29.98,South,181,3.1,5.4,73,0.00,,,0.00,VWS V13.01,2013-02-05 19:48:00,
2013-02-05 13:53:00,56.8,47.9,29.98,SW,222,5.4,5.4,72,0.00,,,0.00,VWS V13.01,2013-02-05 19:53:00,
2013-02-05 13:58:00,56.8,47.2,29.98,South,172,6.3,8.3,70,0.00,,,0.00,VWS V13.01,2013-02-05 19:58:00,
2013-02-05 14:03:00,56.8,47.9,29.98,SSW,196,3.1,4.0,72,0.00,,,0.00,VWS V13.01,2013-02-05 20:03:00,
2013-02-05 14:08:00,57.5,48.2,29.98,SW,232,3.6,3.6,71,0.00,,,0.00,VWS V13.01,2013-02-05 20:08:00,
2013-02-05 14:13:00,57.7,47.6,29.95,South,170,3.6,5.4,69,0.00,,,0.00,VWS V13.01,2013-02-05 20:13:00,
2013-02-05 14:18:00,57.9,47.8,29.95,South,191,4.9,6.3,69,0.00,,,0.00,VWS V13.01,2013-02-05 20:18:00,
2013-02-05 14:23:00,57.9,47.4,29.95,SW,220,5.8,5.8,68,0.00,,,0.00,VWS V13.01,2013-02-05 20:23:00,
2013-02-05 14:28:00,58.1,47.6,29.95,South,181,6.3,6.3,68,0.00,,,0.00,VWS V13.01,2013-02-05 20:28:00,
2013-02-05 14:33:00,58.3,47.4,29.95,SSW,204,5.8,5.8,67,0.00,,,0.00,VWS V13.01,2013-02-05 20:33:00,
2013-02-05 14:38:00,58.4,47.1,29.95,SSW,203,4.0,7.6,66,0.00,,,0.00,VWS V13.01,2013-02-05 20:38:00,
2013-02-05 14:43:00,58.4,46.3,29.95,SW,215,7.6,7.6,64,0.00,,,0.00,VWS V13.01,2013-02-05 20:43:00,
2013-02-05 14:48:00,58.3,46.6,29.95,SSE,166,7.6,7.6,65,0.00,,,0.00,VWS V13.01,2013-02-05 20:48:00,
2013-02-05 14:53:00,58.4,47.1,29.95,SSW,198,7.6,7.6,66,0.00,,,0.00,VWS V13.01,2013-02-05 20:53:00,
2013-02-05 14:58:00,58.8,47.1,29.95,South,187,4.9,5.4,65,0.00,,,0.00,VWS V13.01,2013-02-05 20:58:00,
2013-02-05 15:03:00,59.2,46.6,29.95,South,170,5.8,5.8,63,0.00,,,0.00,VWS V13.01,2013-02-05 21:03:00,
2013-02-05 15:08:00,59.3,46.3,29.95,South,184,5.4,5.4,62,0.00,,,0.00,VWS V13.01,2013-02-05 21:08:00,
2013-02-05 15:13:00,59.3,46.3,29.95,SSW,209,6.3,8.3,62,0.00,,,0.00,VWS V13.01,2013-02-05 21:13:00,
2013-02-05 15:18:00,59.5,46.9,29.95,South,189,8.1,8.1,63,0.00,,,0.00,VWS V13.01,2013-02-05 21:18:00,
2013-02-05 15:23:00,59.7,47.1,29.95,South,172,6.3,6.7,63,0.00,,,0.00,VWS V13.01,2013-02-05 21:23:00,
2013-02-05 15:28:00,59.9,46.4,29.95,South,174,5.4,5.4,61,0.00,,,0.00,VWS V13.01,2013-02-05 21:28:00,
2013-02-05 15:33:00,59.9,46.8,29.95,SSW,198,6.3,6.3,62,0.00,,,0.00,VWS V13.01,2013-02-05 21:33:00,
2013-02-05 15:38:00,59.7,47.5,29.95,SSW,205,5.8,5.8,64,0.00,,,0.00,VWS V13.01,2013-02-05 21:38:00,
2013-02-05 15:43:00,59.5,46.9,29.95,SSE,167,6.3,6.3,63,0.00,,,0.00,VWS V13.01,2013-02-05 21:43:00,
2013-02-05 15:48:00,59.5,47.3,29.95,South,191,5.8,7.6,64,0.00,,,0.00,VWS V13.01,2013-02-05 21:48:00,
2013-02-05 15:53:00,59.7,47.9,29.95,South,190,5.8,5.8,65,0.00,,,0.00,VWS V13.01,2013-02-05 21:53:00,
2013-02-05 15:58:00,59.9,47.7,29.95,South,185,8.3,8.3,64,0.00,,,0.00,VWS V13.01,2013-02-05 21:58:00,
2013-02-05 16:03:00,59.9,47.7,29.95,SSW,204,5.4,5.8,64,0.00,,,0.00,VWS V13.01,2013-02-05 22:03:00,
2013-02-05 16:08:00,59.9,47.7,29.95,South,177,3.6,4.9,64,0.00,,,0.00,VWS V13.01,2013-02-05 22:08:00,
2013-02-05 16:13:00,59.9,47.7,29.95,SSE,156,4.9,6.3,64,0.00,,,0.00,VWS V13.01,2013-02-05 22:13:00,
2013-02-05 16:18:00,60.1,47.9,29.95,SSW,203,5.8,5.8,64,0.00,,,0.00,VWS V13.01,2013-02-05 22:18:00,
2013-02-05 16:23:00,60.1,47.4,29.95,South,181,4.0,5.8,63,0.00,,,0.00,VWS V13.01,2013-02-05 22:23:00,
2013-02-05 16:28:00,60.2,48.0,29.95,SW,229,3.6,4.9,64,0.00,,,0.00,VWS V13.01,2013-02-05 22:28:00,
2013-02-05 16:33:00,60.2,48.0,29.95,South,187,4.0,4.0,64,0.00,,,0.00,VWS V13.01,2013-02-05 22:33:00,
2013-02-05 16:38:00,60.2,47.6,29.95,SSW,203,3.6,5.4,63,0.00,,,0.00,VWS V13.01,2013-02-05 22:38:00,
2013-02-05 16:43:00,60.4,47.8,29.95,SW,226,3.6,4.0,63,0.00,,,0.00,VWS V13.01,2013-02-05 22:43:00,
2013-02-05 16:48:00,60.2,48.0,29.95,South,176,3.1,4.0,64,0.00,,,0.00,VWS V13.01,2013-02-05 22:48:00,
2013-02-05 16:53:00,60.2,48.0,29.95,South,171,2.7,2.7,64,0.00,,,0.00,VWS V13.01,2013-02-05 22:53:00,
2013-02-05 16:58:00,60.2,48.0,29.95,SW,218,3.1,3.6,64,0.00,,,0.00,VWS V13.01,2013-02-05 22:58:00,
2013-02-05 17:03:00,60.1,47.9,29.95,South,175,3.6,3.6,64,0.00,,,0.00,VWS V13.01,2013-02-05 23:03:00,
2013-02-05 17:08:00,60.1,47.9,29.95,South,175,0.0,0.0,64,0.00,,,0.00,VWS V13.01,2013-02-05 23:08:00,
2013-02-05 17:13:00,60.1,47.9,29.95,South,179,3.1,3.6,64,0.00,,,0.00,VWS V13.01,2013-02-05 23:13:00,
2013-02-05 17:18:00,59.9,47.3,29.95,South,177,3.1,3.1,63,0.00,,,0.00,VWS V13.01,2013-02-05 23:18:00,
2013-02-05 17:23:00,59.9,47.7,29.95,SSW,196,2.7,3.1,64,0.00,,,0.00,VWS V13.01,2013-02-05 23:23:00,
2013-02-05 17:28:00,59.7,47.1,29.95,SSW,194,3.1,3.1,63,0.00,,,0.00,VWS V13.01,2013-02-05 23:28:00,
2013-02-05 17:33:00,59.3,47.2,29.95,South,182,2.7,3.1,64,0.00,,,0.00,VWS V13.01,2013-02-05 23:33:00,
2013-02-05 17:38:00,59.2,47.0,29.95,South,182,2.7,2.7,64,0.00,,,0.00,VWS V13.01,2013-02-05 23:38:00,
2013-02-05 17:42:00,58.8,46.7,29.95,South,170,2.7,2.7,64,0.00,,,0.00,VWS V13.01,2013-02-05 23:42:00,
2013-02-05 17:47:00,58.4,46.7,29.95,South,178,2.2,2.7,65,0.00,,,0.00,VWS V13.01,2013-02-05 23:47:00,
2013-02-05 17:52:00,57.9,46.2,29.95,South,184,2.2,2.7,65,0.00,,,0.00,VWS V13.01,2013-02-05 23:52:00,
2013-02-05 17:57:00,57.2,45.9,29.95,WSW,242,2.2,3.1,66,0.00,,,0.00,VWS V13.01,2013-02-05 23:57:00,
2013-02-05 18:02:00,56.5,45.7,29.98,WSW,247,2.2,2.7,67,0.00,,,0.00,VWS V13.01,2013-02-06 00:02:00,
2013-02-05 18:07:00,55.9,45.5,29.98,WSW,243,0.0,0.0,68,0.00,,,0.00,VWS V13.01,2013-02-06 00:07:00,
2013-02-05 18:12:00,55.7,45.7,29.98,WSW,243,0.0,0.0,69,0.00,,,0.00,VWS V13.01,2013-02-06 00:12:00,
2013-02-05 18:17:00,55.2,45.6,29.98,WSW,243,0.0,0.0,70,0.00,,,0.00,VWS V13.01,2013-02-06 00:17:00,
2013-02-05 18:22:00,54.3,45.5,29.98,North,11,0.0,0.0,72,0.00,,,0.00,VWS V13.01,2013-02-06 00:22:00,
2013-02-05 18:27:00,53.6,45.5,29.98,North,11,0.0,0.0,74,0.00,,,0.00,VWS V13.01,2013-02-06 00:27:00,
2013-02-05 18:32:00,53.2,46.2,29.98,North,11,0.0,0.0,77,0.00,,,0.00,VWS V13.01,2013-02-06 00:32:00,
2013-02-05 18:37:00,52.5,45.8,29.98,North,11,0.0,0.0,78,0.00,,,0.00,VWS V13.01,2013-02-06 00:37:00,
2013-02-05 18:42:00,51.1,46.7,29.98,North,11,0.0,0.0,85,0.00,,,0.00,VWS V13.01,2013-02-06 00:42:00,
2013-02-05 18:47:00,50.7,46.7,29.98,North,10,0.0,0.0,86,0.00,,,0.00,VWS V13.01,2013-02-06 00:47:00,
2013-02-05 18:52:00,50.3,46.0,29.98,North,11,0.0,0.0,85,0.00,,,0.00,VWS V13.01,2013-02-06 00:52:00,
2013-02-05 18:57:00,50.0,47.2,29.98,North,10,0.0,0.0,90,0.00,,,0.00,VWS V13.01,2013-02-06 00:57:00,
2013-02-05 19:02:00,49.6,46.2,29.98,North,11,0.0,0.0,88,0.00,,,0.00,VWS V13.01,2013-02-06 01:02:00,
2013-02-05 19:07:00,48.9,45.8,29.98,North,11,0.0,0.0,89,0.00,,,0.00,VWS V13.01,2013-02-06 01:07:00,
2013-02-05 19:12:00,48.2,45.4,29.98,North,11,0.0,0.0,90,0.00,,,0.00,VWS V13.01,2013-02-06 01:12:00,
2013-02-05 19:17:00,47.8,46.2,29.98,North,11,0.0,0.0,94,0.00,,,0.00,VWS V13.01,2013-02-06 01:17:00,
2013-02-05 19:22:00,47.6,46.0,29.98,North,11,0.0,0.0,94,0.00,,,0.00,VWS V13.01,2013-02-06 01:22:00,
2013-02-05 19:27:00,47.8,46.5,29.98,North,11,0.0,0.0,95,0.00,,,0.00,VWS V13.01,2013-02-06 01:27:00,
2013-02-05 19:32:00,47.6,46.0,30.01,North,11,0.0,0.0,94,0.00,,,0.00,VWS V13.01,2013-02-06 01:32:00,
2013-02-05 19:37:00,47.3,45.1,30.01,North,11,0.0,0.0,92,0.00,,,0.00,VWS V13.01,2013-02-06 01:37:00,
2013-02-05 19:42:00,46.9,45.8,30.01,North,11,0.0,0.0,96,0.00,,,0.00,VWS V13.01,2013-02-06 01:42:00,
2013-02-05 19:47:00,46.6,45.5,30.01,North,11,0.0,0.0,96,0.00,,,0.00,VWS V13.01,2013-02-06 01:47:00,
2013-02-05 19:52:00,46.2,45.4,30.01,NNE,22,2.7,3.1,97,0.00,,,0.00,VWS V13.01,2013-02-06 01:52:00,
2013-02-05 19:57:00,45.7,45.1,30.01,NNE,22,0.0,2.2,98,0.00,,,0.00,VWS V13.01,2013-02-06 01:57:00,
2013-02-05 20:02:00,45.5,45.0,30.01,NNE,22,0.0,0.0,98,0.00,,,0.00,VWS V13.01,2013-02-06 02:02:00,
2013-02-05 20:07:00,45.5,45.0,30.01,NNE,22,0.0,0.0,98,0.00,,,0.00,VWS V13.01,2013-02-06 02:07:00,
2013-02-05 20:12:00,45.3,44.8,30.01,NNE,22,0.0,0.0,98,0.00,,,0.00,VWS V13.01,2013-02-06 02:12:00,
2013-02-05 20:17:00,45.3,44.5,30.01,NNE,22,0.0,0.0,97,0.00,,,0.00,VWS V13.01,2013-02-06 02:17:00,
2013-02-05 20:22:00,44.9,44.4,30.01,NNE,22,0.0,0.0,98,0.00,,,0.00,VWS V13.01,2013-02-06 02:22:00,
2013-02-05 20:27:00,44.8,44.5,30.01,NNE,22,0.0,0.0,99,0.00,,,0.00,VWS V13.01,2013-02-06 02:27:00,
2013-02-05 20:32:00,44.6,44.6,30.01,NNE,22,0.0,0.0,100,0.00,,,0.00,VWS V13.01,2013-02-06 02:32:00,
2013-02-05 20:37:00,44.2,43.4,30.01,NNE,22,0.0,0.0,97,0.00,,,0.00,VWS V13.01,2013-02-06 02:37:00,
2013-02-05 20:42:00,43.9,43.1,30.01,NNE,22,0.0,0.0,97,0.00,,,0.00,VWS V13.01,2013-02-06 02:42:00,
2013-02-05 20:47:00,43.3,43.1,30.01,NNE,22,0.0,0.0,99,0.00,,,0.00,VWS V13.01,2013-02-06 02:47:00,
2013-02-05 20:52:00,42.6,42.3,30.01,NNE,29,3.1,3.1,99,0.00,,,0.00,VWS V13.01,2013-02-06 02:52:00,
2013-02-05 20:57:00,41.9,41.9,30.01,NNE,26,3.1,3.1,100,0.00,,,0.00,VWS V13.01,2013-02-06 02:57:00,
2013-02-05 21:02:00,41.7,41.7,30.04,NNE,26,0.0,0.0,100,0.00,,,0.00,VWS V13.01,2013-02-06 03:02:00,
2013-02-05 21:07:00,41.7,41.7,30.04,ENE,64,0.0,0.0,100,0.00,,,0.00,VWS V13.01,2013-02-06 03:07:00,
2013-02-05 21:12:00,42.1,42.1,30.04,East,97,0.0,0.0,100,0.00,,,0.00,VWS V13.01,2013-02-06 03:12:00,
2013-02-05 21:17:00,42.1,42.1,30.01,East,97,0.0,0.0,100,0.00,,,0.00,VWS V13.01,2013-02-06 03:17:00,
2013-02-05 21:22:00,42.1,42.1,30.01,East,97,0.0,0.0,100,0.00,,,0.00,VWS V13.01,2013-02-06 03:22:00,
2013-02-05 21:27:00,41.5,41.5,30.01,North,354,2.7,2.7,100,0.00,,,0.00,VWS V13.01,2013-02-06 03:27:00,
2013-02-05 21:32:00,41.3,41.3,30.01,NNE,25,2.2,2.2,100,0.00,,,0.00,VWS V13.01,2013-02-06 03:32:00,
2013-02-05 21:37:00,41.3,41.3,30.01,NNE,25,0.0,0.0,100,0.00,,,0.00,VWS V13.01,2013-02-06 03:37:00,
2013-02-05 21:42:00,41.2,41.2,30.01,NW,313,0.0,0.0,100,0.00,,,0.00,VWS V13.01,2013-02-06 03:42:00,
2013-02-05 21:47:00,40.8,40.8,30.04,West,274,0.0,0.0,100,0.00,,,0.00,VWS V13.01,2013-02-06 03:47:00,
2013-02-05 21:52:00,40.8,40.8,30.04,South,191,0.0,0.0,100,0.00,,,0.00,VWS V13.01,2013-02-06 03:52:00,
2013-02-05 21:57:00,40.6,40.6,30.04,South,187,0.0,0.0,100,0.00,,,0.00,VWS V13.01,2013-02-06 03:57:00,
2013-02-05 22:02:00,40.8,40.8,30.04,South,187,0.0,0.0,100,0.00,,,0.00,VWS V13.01,2013-02-06 04:02:00,
2013-02-05 22:07:00,40.8,40.8,30.04,South,187,0.0,0.0,100,0.00,,,0.00,VWS V13.01,2013-02-06 04:07:00,
2013-02-05 22:12:00,41.0,41.0,30.04,South,187,0.0,0.0,100,0.00,,,0.00,VWS V13.01,2013-02-06 04:12:00,
2013-02-05 22:17:00,40.3,40.3,30.04,South,187,0.0,0.0,100,0.00,,,0.00,VWS V13.01,2013-02-06 04:17:00,
2013-02-05 22:22:00,39.7,39.7,30.04,South,187,0.0,0.0,100,0.00,,,0.00,VWS V13.01,2013-02-06 04:22:00,
2013-02-05 22:27:00,39.4,39.4,30.04,South,187,0.0,0.0,100,0.00,,,0.00,VWS V13.01,2013-02-06 04:27:00,
2013-02-05 22:32:00,39.0,39.0,30.04,NE,42,2.7,2.7,100,0.00,,,0.00,VWS V13.01,2013-02-06 04:32:00,
2013-02-05 22:37:00,39.0,39.0,30.04,NE,42,2.7,3.1,100,0.00,,,0.00,VWS V13.01,2013-02-06 04:37:00,
2013-02-05 22:42:00,38.8,38.8,30.04,NE,42,0.0,0.0,100,0.00,,,0.00,VWS V13.01,2013-02-06 04:42:00,
2013-02-05 22:47:00,39.0,39.0,30.04,NE,42,0.0,0.0,100,0.00,,,0.00,VWS V13.01,2013-02-06 04:47:00,
2013-02-05 22:52:00,38.6,38.6,30.04,NNW,343,0.0,0.0,100,0.00,,,0.00,VWS V13.01,2013-02-06 04:52:00,
2013-02-05 22:57:00,38.5,38.5,30.04,NNW,343,0.0,0.0,100,0.00,,,0.00,VWS V13.01,2013-02-06 04:57:00,
2013-02-05 23:00:00,38.5,38.5,30.04,NNW,343,0.0,0.0,100,0.00,,,0.00,VWS V13.01,2013-02-06 05:00:00,
2013-02-05 23:05:00,38.5,38.5,30.04,NNW,343,0.0,0.0,100,0.00,,,0.00,VWS V13.01,2013-02-06 05:05:00,
2013-02-05 23:10:00,38.5,38.5,30.04,NNW,343,0.0,0.0,100,0.00,,,0.00,VWS V13.01,2013-02-06 05:10:00,
2013-02-05 23:15:00,38.6,38.6,30.04,NNW,343,0.0,0.0,100,0.00,,,0.00,VWS V13.01,2013-02-06 05:15:00,
2013-02-05 23:20:00,38.6,38.6,30.04,NNW,343,0.0,0.0,100,0.00,,,0.00,VWS V13.01,2013-02-06 05:20:00,
2013-02-05 23:25:00,38.5,38.5,30.04,NNW,343,0.0,0.0,100,0.00,,,0.00,VWS V13.01,2013-02-06 05:25:00,
2013-02-05 23:30:00,38.3,38.3,30.04,NNW,343,0.0,0.0,100,0.00,,,0.00,VWS V13.01,2013-02-06 05:30:00,
2013-02-05 23:35:00,38.1,38.1,30.04,NNW,343,0.0,0.0,100,0.00,,,0.00,VWS V13.01,2013-02-06 05:35:00,
2013-02-05 23:40:00,37.7,37.7,30.04,NNW,343,0.0,0.0,100,0.00,,,0.00,VWS V13.01,2013-02-06 05:40:00,
2013-02-05 23:45:00,37.9,37.9,30.04,NNW,343,0.0,0.0,100,0.00,,,0.00,VWS V13.01,2013-02-06 05:45:00,
2013-02-05 23:50:00,37.7,37.7,30.04,NNW,343,0.0,0.0,100,0.00,,,0.00,VWS V13.01,2013-02-06 05:50:00,
2013-02-05 23:55:00,37.9,37.9,30.04,NNW,343,0.0,0.0,100,0.00,,,0.00,VWS V13.01,2013-02-06 05:55:00,